Terminal Aerodrome Forecast
Issued by NWS

Home | Current Version | Previous Version | Text Only | Print | Product List | Glossary On
Versions: 1 2 3 4 5 6 7 8 9 10 11 12 13 14 15 16 17
000
FTUS44 KTSA 281600 AAA
TAFXNA
TAF AMD
KXNA 281621Z 2816/0112 09007KT 3SM -SN BR BKN022
      TEMPO 2816/2818 1SM -SN BR OVC018
     FM281800 13005KT 3SM -SN BR OVC020
      TEMPO 2818/2822 1SM -SN BR OVC010
     FM282200 14003KT 3SM -SNPL BR OVC007
      TEMPO 0108/0112 3SM -FZRA BR OVC007=

USA.gov is the U.S. government's official web portal to all federal, state and local government web resources and services.